Station Historical Data
Daily Summary for March 23, 2017 Units:  English    Metric   Both
Next Day »
Daily Weekly Monthly Yearly Custom
  High: Low: Average:
Temperature: 53.2 °F 35.9 °F 43.7 °F
Dew Point: 43.8 °F 33.5 °F 39 °F
Humidity: 91% 67% 84%
Wind Speed: 12.0mph 0.0mph 0.9mph
Wind Gust: 13.0mph - -
Wind- - SSW
Pressure: 30.29 in 30.14 in -
Precipitation: 0.00 in    
Historical Graphs
 
 
Tabular Data for March 23, 2017
Time Temperature Dew Point Pressure Wind Wind Speed Wind Gust Humidity Rainfall Rate (Hourly) solar Conditions
00:01 39.7 °F 37.3 °F 30.14 in Calm   6.0 mph 91% 0.00 in 0.00 W/m2
00:06 39.6 °F 37.2 °F 30.14 in Calm     91% 0.00 in 0.00 W/m2
00:11 39.6 °F 37.2 °F 30.14 in Calm     91% 0.00 in 0.00 W/m2
00:16 39.5 °F 37.1 °F 30.14 in Calm     91% 0.00 in 0.00 W/m2
00:21 39.5 °F 37.1 °F 30.14 in Calm     91% 0.00 in 0.00 W/m2
00:26 39.4 °F 37.0 °F 30.14 in Calm   2.0 mph 91% 0.00 in 0.00 W/m2
00:32 39.3 °F 36.9 °F 30.14 in ESE 1.0 mph 7.0 mph 91% 0.00 in 0.00 W/m2
00:37 39.2 °F 36.8 °F 30.15 in Calm   1.0 mph 91% 0.00 in 0.00 W/m2
00:42 39.1 °F 36.7 °F 30.15 in Calm   2.0 mph 91% 0.00 in 0.00 W/m2
00:47 39.0 °F 36.6 °F 30.15 in Calm   1.0 mph 91% 0.00 in 0.00 W/m2
00:52 39.0 °F 36.6 °F 30.16 in Calm     91% 0.00 in 0.00 W/m2
00:57 38.9 °F 36.5 °F 30.16 in Calm     91% 0.00 in 0.00 W/m2
01:02 38.9 °F 36.5 °F 30.16 in Calm     91% 0.00 in 0.00 W/m2
01:07 38.9 °F 36.5 °F 30.16 in Calm     91% 0.00 in 0.00 W/m2
01:12 38.8 °F 36.4 °F 30.15 in Calm     91% 0.00 in 0.00 W/m2
01:17 38.8 °F 36.4 °F 30.15 in Calm     91% 0.00 in 0.00 W/m2
01:22 38.7 °F 36.3 °F 30.16 in East 1.0 mph 5.0 mph 91% 0.00 in 0.00 W/m2
01:27 38.7 °F 36.3 °F 30.16 in Calm     91% 0.00 in 0.00 W/m2
01:32 38.6 °F 36.2 °F 30.16 in Calm     91% 0.00 in 0.00 W/m2
01:37 38.5 °F 36.1 °F 30.16 in Calm   4.0 mph 91% 0.00 in 0.00 W/m2
01:42 38.5 °F 36.1 °F 30.16 in Calm     91% 0.00 in 0.00 W/m2
01:47 38.5 °F 36.1 °F 30.16 in Calm     91% 0.00 in 0.00 W/m2
01:52 38.5 °F 36.1 °F 30.17 in Calm     91% 0.00 in 0.00 W/m2
01:57 38.6 °F 36.2 °F 30.16 in Calm     91% 0.00 in 0.00 W/m2
02:02 38.6 °F 36.2 °F 30.16 in Calm     91% 0.00 in 0.00 W/m2
02:07 38.6 °F 36.2 °F 30.17 in Calm     91% 0.00 in 0.00 W/m2
02:12 38.7 °F 36.3 °F 30.17 in Calm     91% 0.00 in 0.00 W/m2
02:17 38.7 °F 36.3 °F 30.17 in Calm     91% 0.00 in 0.00 W/m2
02:22 38.7 °F 36.3 °F 30.17 in Calm     91% 0.00 in 0.00 W/m2
02:27 38.6 °F 36.2 °F 30.17 in Calm     91% 0.00 in 0.00 W/m2
02:32 38.6 °F 36.2 °F 30.17 in Calm     91% 0.00 in 0.00 W/m2
02:37 38.6 °F 36.2 °F 30.17 in Calm     91% 0.00 in 0.00 W/m2
02:42 38.6 °F 36.2 °F 30.17 in Calm     91% 0.00 in 0.00 W/m2
02:47 38.5 °F 36.1 °F 30.17 in Calm     91% 0.00 in 0.00 W/m2
02:52 38.5 °F 36.1 °F 30.17 in Calm     91% 0.00 in 0.00 W/m2
02:57 38.4 °F 36.0 °F 30.17 in Calm     91% 0.00 in 0.00 W/m2
03:02 38.3 °F 35.9 °F 30.16 in East 4.0 mph 6.0 mph 91% 0.00 in 0.00 W/m2
03:07 38.2 °F 35.8 °F 30.16 in Calm     91% 0.00 in 0.00 W/m2
03:12 38.0 °F 35.6 °F 30.16 in Calm     91% 0.00 in 0.00 W/m2
03:17 37.9 °F 35.5 °F 30.16 in Calm   9.0 mph 91% 0.00 in 0.00 W/m2
03:22 37.8 °F 35.4 °F 30.16 in Calm   6.0 mph 91% 0.00 in 0.00 W/m2
03:27 37.8 °F 35.4 °F 30.16 in Calm     91% 0.00 in 0.00 W/m2
03:32 37.7 °F 35.3 °F 30.16 in Calm   7.0 mph 91% 0.00 in 0.00 W/m2
03:37 37.7 °F 35.3 °F 30.16 in East 2.0 mph 6.0 mph 91% 0.00 in 0.00 W/m2
03:43 37.6 °F 35.2 °F 30.16 in Calm   6.0 mph 91% 0.00 in 0.00 W/m2
03:48 37.5 °F 35.1 °F 30.16 in Calm     91% 0.00 in 0.00 W/m2
03:52 37.5 °F 35.1 °F 30.16 in Calm     91% 0.00 in 0.00 W/m2
03:57 37.4 °F 35.0 °F 30.16 in Calm     91% 0.00 in 0.00 W/m2
04:03 37.4 °F 35.0 °F 30.16 in Calm     91% 0.00 in 0.00 W/m2
04:07 37.3 °F 34.9 °F 30.16 in Calm     91% 0.00 in 0.00 W/m2
04:08 37.4 °F 35.0 °F 30.16 in Calm     91% 0.00 in 0.00 W/m2
04:13 37.3 °F 34.9 °F 30.16 in Calm     91% 0.00 in 0.00 W/m2
04:18 37.2 °F 34.8 °F 30.16 in Calm     91% 0.00 in 0.00 W/m2
04:23 37.1 °F 34.7 °F 30.16 in Calm     91% 0.00 in 0.00 W/m2
04:28 37.0 °F 34.6 °F 30.17 in Calm     91% 0.00 in 0.00 W/m2
04:33 37.0 °F 34.6 °F 30.17 in Calm     91% 0.00 in 0.00 W/m2
04:38 36.9 °F 34.5 °F 30.17 in Calm     91% 0.00 in 0.00 W/m2
04:43 36.8 °F 34.4 °F 30.17 in Calm     91% 0.00 in 0.00 W/m2
04:48 36.8 °F 34.4 °F 30.17 in Calm     91% 0.00 in 0.00 W/m2
04:54 36.6 °F 34.2 °F 30.17 in Calm     91% 0.00 in 0.00 W/m2
04:59 36.6 °F 34.2 °F 30.17 in Calm     91% 0.00 in 0.00 W/m2
05:04 36.6 °F 34.2 °F 30.17 in Calm     91% 0.00 in 0.00 W/m2
05:09 36.5 °F 34.1 °F 30.17 in Calm     91% 0.00 in 0.00 W/m2
05:14 36.4 °F 34.0 °F 30.17 in Calm     91% 0.00 in 0.00 W/m2
05:19 36.3 °F 33.9 °F 30.17 in Calm     91% 0.00 in 0.00 W/m2
05:24 36.2 °F 33.8 °F 30.17 in Calm     91% 0.00 in 0.00 W/m2
05:29 36.2 °F 33.8 °F 30.18 in Calm     91% 0.00 in 0.00 W/m2
05:34 36.2 °F 33.8 °F 30.18 in Calm     91% 0.00 in 0.00 W/m2
05:39 36.2 °F 33.8 °F 30.18 in Calm     91% 0.00 in 0.00 W/m2
05:44 36.2 °F 33.8 °F 30.18 in Calm     91% 0.00 in 0.00 W/m2
05:49 36.2 °F 33.8 °F 30.18 in Calm     91% 0.00 in 0.00 W/m2
05:54 36.3 °F 33.9 °F 30.18 in Calm     91% 0.00 in 0.00 W/m2
05:59 36.5 °F 34.1 °F 30.18 in Calm     91% 0.00 in 0.00 W/m2
06:04 36.6 °F 34.2 °F 30.18 in Calm     91% 0.00 in 0.00 W/m2
06:09 36.6 °F 34.2 °F 30.18 in Calm     91% 0.00 in 0.00 W/m2
06:14 36.6 °F 34.2 °F 30.18 in Calm     91% 0.00 in 0.00 W/m2
06:19 36.6 °F 34.2 °F 30.18 in Calm     91% 0.00 in 0.00 W/m2
06:24 36.5 °F 34.1 °F 30.18 in Calm     91% 0.00 in 0.00 W/m2
06:29 36.5 °F 34.1 °F 30.18 in Calm     91% 0.00 in 0.00 W/m2
06:34 36.5 °F 34.1 °F 30.18 in Calm     91% 0.00 in 0.00 W/m2
06:39 36.4 °F 34.0 °F 30.18 in Calm     91% 0.00 in 0.00 W/m2
06:44 36.4 °F 34.0 °F 30.18 in Calm     91% 0.00 in 0.00 W/m2
06:49 36.3 °F 33.9 °F 30.18 in Calm     91% 0.00 in 0.00 W/m2
06:54 36.2 °F 33.8 °F 30.18 in Calm     91% 0.00 in 0.00 W/m2
06:59 36.2 °F 33.8 °F 30.19 in Calm     91% 0.00 in 5.00 W/m2
07:04 36.2 °F 33.8 °F 30.19 in Calm     91% 0.00 in 7.00 W/m2
07:09 36.2 °F 33.8 °F 30.19 in Calm   4.0 mph 91% 0.00 in 11.00 W/m2
07:14 36.1 °F 33.7 °F 30.19 in Calm   7.0 mph 91% 0.00 in 14.00 W/m2
07:19 36.0 °F 33.6 °F 30.20 in Calm     91% 0.00 in 16.00 W/m2
07:24 36.0 °F 33.6 °F 30.20 in Calm     91% 0.00 in 19.00 W/m2
07:29 36.0 °F 33.6 °F 30.20 in Calm     91% 0.00 in 30.00 W/m2
07:34 35.9 °F 33.5 °F 30.20 in Calm     91% 0.00 in 42.00 W/m2
07:39 35.9 °F 33.5 °F 30.21 in Calm     91% 0.00 in 58.00 W/m2
07:44 36.0 °F 33.6 °F 30.21 in Calm     91% 0.00 in 72.00 W/m2
07:49 36.0 °F 33.6 °F 30.21 in Calm     91% 0.00 in 90.00 W/m2
07:54 35.9 °F 33.5 °F 30.21 in Calm     91% 0.00 in 109.00 W/m2
07:59 35.9 °F 33.5 °F 30.21 in Calm     91% 0.00 in 128.00 W/m2
08:04 36.0 °F 33.6 °F 30.22 in Calm     91% 0.00 in 149.00 W/m2
08:09 36.0 °F 33.6 °F 30.22 in Calm     91% 0.00 in 172.00 W/m2
08:14 36.1 °F 33.7 °F 30.22 in Calm     91% 0.00 in 193.00 W/m2
08:19 36.2 °F 33.8 °F 30.23 in Calm     91% 0.00 in 218.00 W/m2
08:25 36.3 °F 33.9 °F 30.23 in Calm     91% 0.00 in 237.00 W/m2
08:30 36.4 °F 34.0 °F 30.23 in Calm     91% 0.00 in 260.00 W/m2
08:35 36.6 °F 34.2 °F 30.24 in Calm     91% 0.00 in 283.00 W/m2
08:40 36.8 °F 34.4 °F 30.24 in Calm     91% 0.00 in 306.00 W/m2
08:45 37.0 °F 34.6 °F 30.24 in Calm     91% 0.00 in 327.00 W/m2
08:50 37.3 °F 34.9 °F 30.24 in Calm     91% 0.00 in 346.00 W/m2
08:55 37.6 °F 35.2 °F 30.24 in Calm     91% 0.00 in 364.00 W/m2
09:00 38.0 °F 35.6 °F 30.24 in Calm     91% 0.00 in 380.00 W/m2
09:05 38.2 °F 35.8 °F 30.24 in East 1.0 mph 4.0 mph 91% 0.00 in 396.00 W/m2
09:10 38.4 °F 36.0 °F 30.24 in Calm   4.0 mph 91% 0.00 in 415.00 W/m2
09:15 38.8 °F 36.4 °F 30.24 in East 1.0 mph 4.0 mph 91% 0.00 in 431.00 W/m2
09:20 39.1 °F 36.7 °F 30.24 in Calm   4.0 mph 91% 0.00 in 446.00 W/m2
09:25 39.3 °F 36.9 °F 30.24 in East 2.0 mph 4.0 mph 91% 0.00 in 464.00 W/m2
09:30 39.5 °F 37.1 °F 30.24 in Calm   1.0 mph 91% 0.00 in 482.00 W/m2
09:35 39.7 °F 37.3 °F 30.25 in Calm     91% 0.00 in 496.00 W/m2
09:40 39.9 °F 37.5 °F 30.25 in Calm     91% 0.00 in 513.00 W/m2
09:45 40.2 °F 37.8 °F 30.25 in Calm     91% 0.00 in 529.00 W/m2
09:50 40.4 °F 38.0 °F 30.25 in Calm     91% 0.00 in 541.00 W/m2
09:55 40.7 °F 38.3 °F 30.25 in Calm     91% 0.00 in 557.00 W/m2
10:00 41.0 °F 38.6 °F 30.25 in Calm     91% 0.00 in 575.00 W/m2
10:05 41.4 °F 39.0 °F 30.25 in Calm     91% 0.00 in 592.00 W/m2
10:10 41.6 °F 39.2 °F 30.26 in Calm     91% 0.00 in 605.00 W/m2
10:15 42.2 °F 39.5 °F 30.26 in Calm   6.0 mph 90% 0.00 in 605.00 W/m2
10:20 42.5 °F 39.5 °F 30.26 in North 1.0 mph 2.0 mph 89% 0.00 in 631.00 W/m2
10:25 42.8 °F 39.5 °F 30.26 in North 3.0 mph 4.0 mph 88% 0.00 in 638.00 W/m2
10:30 43.1 °F 38.9 °F 30.26 in Calm   3.0 mph 85% 0.00 in 657.00 W/m2
10:35 43.4 °F 38.9 °F 30.26 in Calm     84% 0.00 in 671.00 W/m2
10:40 43.7 °F 38.6 °F 30.26 in North 1.0 mph 3.0 mph 82% 0.00 in 687.00 W/m2
10:45 44.1 °F 39.3 °F 30.26 in North 2.0 mph 3.0 mph 83% 0.00 in 684.00 W/m2
10:50 44.2 °F 38.4 °F 30.26 in North 1.0 mph 3.0 mph 80% 0.00 in 717.00 W/m2
10:55 44.5 °F 37.8 °F 30.26 in NNW 2.0 mph 3.0 mph 77% 0.00 in 738.00 W/m2
11:00 44.8 °F 38.4 °F 30.26 in Calm     78% 0.00 in 135.00 W/m2
11:05 44.9 °F 39.1 °F 30.26 in Calm   1.0 mph 80% 0.00 in 179.00 W/m2
11:10 45.0 °F 38.6 °F 30.26 in NNW 1.0 mph 2.0 mph 78% 0.00 in 786.00 W/m2
11:11 45.0 °F 38.6 °F 30.26 in Calm   2.0 mph 78% 0.00 in 830.00 W/m2
11:16 45.0 °F 38.2 °F 30.26 in Calm     77% 0.00 in 200.00 W/m2
11:21 45.1 °F 39.0 °F 30.27 in Calm     79% 0.00 in 316.00 W/m2
11:26 45.4 °F 39.3 °F 30.27 in Calm   2.0 mph 79% 0.00 in 301.00 W/m2
11:31 45.7 °F 39.9 °F 30.27 in NW 1.0 mph 1.0 mph 80% 0.00 in 452.00 W/m2
11:36 46.0 °F 40.8 °F 30.27 in Calm   3.0 mph 82% 0.00 in 271.00 W/m2
11:41 46.2 °F 41.0 °F 30.27 in NW 1.0 mph 1.0 mph 82% 0.00 in 315.00 W/m2
11:46 46.3 °F 40.5 °F 30.27 in Calm     80% 0.00 in 299.00 W/m2
11:51 46.4 °F 39.9 °F 30.27 in Calm     78% 0.00 in 466.00 W/m2
11:56 46.6 °F 41.1 °F 30.27 in Calm     81% 0.00 in 304.00 W/m2
12:01 46.8 °F 40.3 °F 30.27 in Calm     78% 0.00 in 520.00 W/m2
12:06 46.9 °F 40.1 °F 30.27 in Calm     77% 0.00 in 1055.00 W/m2
12:11 47.2 °F 41.4 °F 30.26 in Calm   2.0 mph 80% 0.00 in 619.00 W/m2
12:16 47.6 °F 41.1 °F 30.26 in WSW 4.0 mph 4.0 mph 78% 0.00 in 991.00 W/m2
12:21 48.1 °F 40.9 °F 30.26 in Calm     76% 0.00 in 1014.00 W/m2
12:26 48.5 °F 41.0 °F 30.26 in Calm     75% 0.00 in 1025.00 W/m2
12:31 49.1 °F 41.5 °F 30.26 in SW 7.0 mph 7.0 mph 75% 0.00 in 287.00 W/m2
12:36 49.5 °F 41.6 °F 30.26 in WSW 1.0 mph 3.0 mph 74% 0.00 in 1004.00 W/m2
12:41 49.9 °F 41.6 °F 30.26 in Calm     73% 0.00 in 1049.00 W/m2
12:46 50.3 °F 40.9 °F 30.27 in SSW 1.0 mph 1.0 mph 70% 0.00 in 246.00 W/m2
12:51 50.3 °F 40.9 °F 30.26 in WSW 2.0 mph 4.0 mph 70% 0.00 in 853.00 W/m2
12:56 50.3 °F 42.7 °F 30.26 in WSW 2.0 mph 4.0 mph 75% 0.00 in 1027.00 W/m2
13:01 50.4 °F 42.4 °F 30.26 in SW 5.0 mph 7.0 mph 74% 0.00 in 1020.00 W/m2
13:06 50.8 °F 41.8 °F 30.26 in Calm   4.0 mph 71% 0.00 in 1021.00 W/m2
13:11 51.1 °F 41.3 °F 30.26 in Calm   1.0 mph 69% 0.00 in 322.00 W/m2
13:16 51.2 °F 41.8 °F 30.26 in SW 6.0 mph 7.0 mph 70% 0.00 in 237.00 W/m2
13:21 51.2 °F 41.4 °F 30.26 in Calm     69% 0.00 in 336.00 W/m2
13:26 50.9 °F 41.8 °F 30.26 in SW 3.0 mph 5.0 mph 71% 0.00 in 225.00 W/m2
13:31 50.5 °F 41.1 °F 30.26 in West 3.0 mph 4.0 mph 70% 0.00 in 230.00 W/m2
13:36 50.3 °F 41.6 °F 30.26 in Calm     72% 0.00 in 264.00 W/m2
13:42 50.1 °F 41.4 °F 30.26 in SW 2.0 mph 5.0 mph 72% 0.00 in 1111.00 W/m2
13:47 50.2 °F 40.8 °F 30.26 in Calm   4.0 mph 70% 0.00 in 962.00 W/m2
13:52 50.6 °F 42.3 °F 30.26 in SSW 3.0 mph 6.0 mph 73% 0.00 in 984.00 W/m2
13:57 51.1 °F 41.3 °F 30.26 in Calm   5.0 mph 69% 0.00 in 969.00 W/m2
14:02 51.4 °F 42.0 °F 30.26 in WSW 4.0 mph 10.0 mph 70% 0.00 in 932.00 W/m2
14:07 51.6 °F 41.4 °F 30.26 in SSW 1.0 mph 4.0 mph 68% 0.00 in 991.00 W/m2
14:10 51.9 °F 42.4 °F 30.25 in Calm   6.0 mph 70% 0.00 in 881.00 W/m2
14:15 52.3 °F 42.1 °F 30.26 in SW 1.0 mph 8.0 mph 68% 0.00 in 937.00 W/m2
14:20 52.7 °F 42.8 °F 30.26 in SW 7.0 mph 10.0 mph 69% 0.00 in 939.00 W/m2
14:25 53.1 °F 42.5 °F 30.25 in Calm   10.0 mph 67% 0.00 in 854.00 W/m2
14:30 52.7 °F 42.1 °F 30.26 in Calm   12.0 mph 67% 0.00 in 246.00 W/m2
14:35 52.3 °F 42.1 °F 30.25 in Calm   10.0 mph 68% 0.00 in 216.00 W/m2
14:40 52.2 °F 42.7 °F 30.25 in SSW 6.0 mph 8.0 mph 70% 0.00 in 327.00 W/m2
14:45 52.2 °F 43.1 °F 30.25 in Calm   9.0 mph 71% 0.00 in 879.00 W/m2
14:50 52.2 °F 42.7 °F 30.25 in SW 6.0 mph 9.0 mph 70% 0.00 in 837.00 W/m2
14:55 52.3 °F 42.8 °F 30.25 in South 1.0 mph 9.0 mph 70% 0.00 in 810.00 W/m2
15:00 52.6 °F 43.1 °F 30.25 in Calm   9.0 mph 70% 0.00 in 858.00 W/m2
15:05 52.8 °F 43.3 °F 30.25 in South 6.0 mph 11.0 mph 70% 0.00 in 858.00 W/m2
15:10 53.0 °F 42.7 °F 30.25 in South 1.0 mph 11.0 mph 68% 0.00 in 858.00 W/m2
15:15 53.2 °F 43.7 °F 30.25 in SSW 1.0 mph 13.0 mph 70% 0.00 in 770.00 W/m2
15:20 53.2 °F 43.7 °F 30.25 in SSW 7.0 mph 10.0 mph 70% 0.00 in 155.00 W/m2
15:25 53.2 °F 43.3 °F 30.25 in South 6.0 mph 11.0 mph 69% 0.00 in 838.00 W/m2
15:30 53.1 °F 42.8 °F 30.24 in South 11.0 mph 11.0 mph 68% 0.00 in 773.00 W/m2
15:31 53.0 °F 42.7 °F 30.24 in SSW 6.0 mph 9.0 mph 68% 0.00 in 810.00 W/m2
15:36 52.9 °F 43.0 °F 30.24 in SSW 7.0 mph 8.0 mph 69% 0.00 in 691.00 W/m2
15:41 52.8 °F 42.9 °F 30.24 in Calm     69% 0.00 in 297.00 W/m2
15:46 52.7 °F 42.8 °F 30.24 in SSW 5.0 mph 8.0 mph 69% 0.00 in 93.00 W/m2
15:51 52.4 °F 42.2 °F 30.24 in Calm     68% 0.00 in 668.00 W/m2
15:56 52.3 °F 42.8 °F 30.24 in Calm   1.0 mph 70% 0.00 in 656.00 W/m2
16:01 52.2 °F 42.7 °F 30.24 in SW 10.0 mph 13.0 mph 70% 0.00 in 633.00 W/m2
16:06 52.2 °F 42.7 °F 30.24 in Calm   1.0 mph 70% 0.00 in 615.00 W/m2
16:11 52.2 °F 43.5 °F 30.24 in Calm     72% 0.00 in 650.00 W/m2
16:16 52.1 °F 43.7 °F 30.24 in Calm     73% 0.00 in 594.00 W/m2
16:21 52.0 °F 42.5 °F 30.24 in SSW 2.0 mph 2.0 mph 70% 0.00 in 570.00 W/m2
16:26 52.0 °F 41.8 °F 30.24 in South 6.0 mph 6.0 mph 68% 0.00 in 541.00 W/m2
16:31 52.0 °F 42.2 °F 30.24 in Calm   1.0 mph 69% 0.00 in 127.00 W/m2
16:36 51.9 °F 42.4 °F 30.25 in SW 4.0 mph 8.0 mph 70% 0.00 in 533.00 W/m2
16:41 51.9 °F 42.4 °F 30.25 in WSW 6.0 mph 11.0 mph 70% 0.00 in 534.00 W/m2
16:46 51.8 °F 43.1 °F 30.25 in SW 6.0 mph 6.0 mph 72% 0.00 in 483.00 W/m2
16:51 51.8 °F 43.1 °F 30.25 in Calm     72% 0.00 in 417.00 W/m2
16:57 51.7 °F 42.6 °F 30.25 in SSW 12.0 mph 13.0 mph 71% 0.00 in 411.00 W/m2
17:02 51.7 °F 43.0 °F 30.25 in SW 10.0 mph 10.0 mph 72% 0.00 in 323.00 W/m2
17:06 51.7 °F 43.3 °F 30.25 in Calm     73% 0.00 in 302.00 W/m2
17:12 51.6 °F 43.2 °F 30.25 in Calm     73% 0.00 in 151.00 W/m2
17:17 51.5 °F 43.5 °F 30.25 in Calm   9.0 mph 74% 0.00 in 149.00 W/m2
17:22 51.4 °F 43.8 °F 30.25 in WSW 8.0 mph 8.0 mph 75% 0.00 in 192.00 W/m2
17:27 51.2 °F 43.2 °F 30.25 in South 11.0 mph 11.0 mph 74% 0.00 in 308.00 W/m2
17:32 51.2 °F 43.2 °F 30.25 in SSW 10.0 mph 13.0 mph 74% 0.00 in 111.00 W/m2
17:37 51.1 °F 43.1 °F 30.25 in South 6.0 mph 12.0 mph 74% 0.00 in 272.00 W/m2
17:42 51.0 °F 43.0 °F 30.25 in Calm     74% 0.00 in 146.00 W/m2
17:47 50.8 °F 43.5 °F 30.25 in Calm   8.0 mph 76% 0.00 in 234.00 W/m2
17:52 50.6 °F 43.0 °F 30.25 in WSW 3.0 mph 5.0 mph 75% 0.00 in 220.00 W/m2
17:57 50.4 °F 42.8 °F 30.25 in Calm   7.0 mph 75% 0.00 in 114.00 W/m2
18:02 50.3 °F 42.7 °F 30.26 in SSW 6.0 mph 9.0 mph 75% 0.00 in 118.00 W/m2
18:07 50.2 °F 42.9 °F 30.26 in Calm   6.0 mph 76% 0.00 in 90.00 W/m2
18:12 50.1 °F 43.2 °F 30.26 in Calm   8.0 mph 77% 0.00 in 97.00 W/m2
18:17 49.9 °F 43.3 °F 30.26 in Calm     78% 0.00 in 93.00 W/m2
18:22 49.8 °F 43.2 °F 30.26 in Calm   10.0 mph 78% 0.00 in 74.00 W/m2
18:27 49.5 °F 42.9 °F 30.27 in Calm   7.0 mph 78% 0.00 in 72.00 W/m2
18:32 49.2 °F 42.6 °F 30.27 in Calm   3.0 mph 78% 0.00 in 51.00 W/m2
18:37 49.0 °F 42.8 °F 30.27 in Calm     79% 0.00 in 42.00 W/m2
18:42 48.8 °F 42.9 °F 30.27 in WSW 2.0 mph 7.0 mph 80% 0.00 in 35.00 W/m2
18:47 48.7 °F 42.8 °F 30.28 in Calm   1.0 mph 80% 0.00 in 26.00 W/m2
18:52 48.4 °F 42.5 °F 30.27 in Calm     80% 0.00 in 21.00 W/m2
18:57 48.1 °F 42.5 °F 30.27 in Calm     81% 0.00 in 19.00 W/m2
19:02 48.0 °F 42.5 °F 30.28 in Calm     81% 0.00 in 12.00 W/m2
19:07 47.8 °F 42.6 °F 30.28 in Calm     82% 0.00 in 9.00 W/m2
19:12 47.7 °F 42.8 °F 30.28 in Calm     83% 0.00 in 5.00 W/m2
19:17 47.4 °F 42.2 °F 30.28 in Calm     82% 0.00 in 0.00 W/m2
19:22 47.3 °F 42.4 °F 30.28 in Calm     83% 0.00 in 0.00 W/m2
19:27 47.2 °F 42.3 °F 30.28 in Calm     83% 0.00 in 0.00 W/m2
19:32 47.1 °F 42.5 °F 30.28 in Calm     84% 0.00 in 0.00 W/m2
19:37 46.9 °F 42.3 °F 30.28 in Calm     84% 0.00 in 0.00 W/m2
19:42 46.7 °F 42.1 °F 30.28 in Calm     84% 0.00 in 0.00 W/m2
19:47 46.6 °F 42.0 °F 30.27 in Calm     84% 0.00 in 0.00 W/m2
19:52 46.5 °F 42.2 °F 30.28 in Calm     85% 0.00 in 0.00 W/m2
19:57 46.4 °F 42.1 °F 30.28 in Calm     85% 0.00 in 0.00 W/m2
20:02 46.3 °F 42.0 °F 30.28 in Calm     85% 0.00 in 0.00 W/m2
20:07 46.1 °F 41.8 °F 30.27 in Calm     85% 0.00 in 0.00 W/m2
20:12 46.0 °F 41.8 °F 30.28 in Calm     85% 0.00 in 0.00 W/m2
20:17 45.9 °F 41.7 °F 30.28 in Calm     85% 0.00 in 0.00 W/m2
20:22 45.8 °F 41.9 °F 30.29 in Calm     86% 0.00 in 0.00 W/m2
20:27 45.7 °F 41.8 °F 30.29 in Calm     86% 0.00 in 0.00 W/m2
20:32 45.6 °F 41.7 °F 30.28 in Calm     86% 0.00 in 0.00 W/m2
20:37 45.6 °F 42.0 °F 30.28 in Calm     87% 0.00 in 0.00 W/m2
20:42 45.5 °F 41.9 °F 30.28 in Calm     87% 0.00 in 0.00 W/m2
20:47 45.5 °F 41.9 °F 30.28 in Calm     87% 0.00 in 0.00 W/m2
20:52 45.4 °F 41.8 °F 30.29 in Calm     87% 0.00 in 0.00 W/m2
20:57 45.4 °F 41.8 °F 30.28 in Calm     87% 0.00 in 0.00 W/m2
21:02 45.3 °F 41.7 °F 30.29 in Calm     87% 0.00 in 0.00 W/m2
21:07 45.2 °F 41.6 °F 30.29 in Calm     87% 0.00 in 0.00 W/m2
21:12 45.2 °F 41.6 °F 30.29 in Calm     87% 0.00 in 0.00 W/m2
21:17 45.1 °F 41.5 °F 30.28 in Calm     87% 0.00 in 0.00 W/m2
21:22 45.1 °F 41.5 °F 30.29 in Calm     87% 0.00 in 0.00 W/m2
21:27 45.0 °F 41.7 °F 30.29 in Calm     88% 0.00 in 0.00 W/m2
21:32 44.9 °F 41.6 °F 30.29 in Calm     88% 0.00 in 0.00 W/m2
21:37 44.9 °F 41.6 °F 30.29 in Calm     88% 0.00 in 0.00 W/m2
21:42 44.8 °F 41.5 °F 30.29 in Calm     88% 0.00 in 0.00 W/m2
21:47 44.7 °F 41.4 °F 30.29 in Calm     88% 0.00 in 0.00 W/m2
21:52 44.7 °F 41.4 °F 30.29 in Calm     88% 0.00 in 0.00 W/m2
21:57 44.7 °F 41.4 °F 30.29 in Calm     88% 0.00 in 0.00 W/m2
22:02 44.7 °F 41.4 °F 30.28 in Calm     88% 0.00 in 0.00 W/m2
22:07 44.7 °F 41.4 °F 30.28 in Calm   1.0 mph 88% 0.00 in 0.00 W/m2
22:12 44.6 °F 41.6 °F 30.28 in Calm   1.0 mph 89% 0.00 in 0.00 W/m2
22:17 44.6 °F 41.6 °F 30.28 in Calm   2.0 mph 89% 0.00 in 0.00 W/m2
22:22 44.6 °F 41.6 °F 30.28 in Calm     89% 0.00 in 0.00 W/m2
22:27 44.6 °F 41.6 °F 30.28 in Calm     89% 0.00 in 0.00 W/m2
22:32 44.5 °F 41.5 °F 30.28 in Calm     89% 0.00 in 0.00 W/m2
22:37 44.5 °F 41.5 °F 30.28 in Calm     89% 0.00 in 0.00 W/m2
22:42 44.4 °F 41.4 °F 30.28 in Calm     89% 0.00 in 0.00 W/m2
22:48 44.4 °F 41.4 °F 30.28 in Calm     89% 0.00 in 0.00 W/m2
22:53 44.3 °F 41.3 °F 30.28 in Calm     89% 0.00 in 0.00 W/m2
22:58 44.3 °F 41.3 °F 30.28 in Calm     89% 0.00 in 0.00 W/m2
23:03 44.2 °F 41.2 °F 30.28 in Calm     89% 0.00 in 0.00 W/m2
23:08 44.2 °F 41.2 °F 30.28 in Calm     89% 0.00 in 0.00 W/m2
23:13 44.1 °F 41.1 °F 30.28 in Calm     89% 0.00 in 0.00 W/m2
23:18 44.1 °F 41.1 °F 30.28 in Calm     89% 0.00 in 0.00 W/m2
23:23 44.1 °F 41.4 °F 30.28 in Calm     90% 0.00 in 0.00 W/m2
23:28 44.1 °F 41.4 °F 30.28 in Calm     90% 0.00 in 0.00 W/m2
23:33 44.1 °F 41.4 °F 30.27 in Calm     90% 0.00 in 0.00 W/m2
23:38 44.1 °F 41.4 °F 30.27 in SE 2.0 mph 5.0 mph 90% 0.00 in 0.00 W/m2
23:43 44.1 °F 41.4 °F 30.26 in Calm   2.0 mph 90% 0.00 in 0.00 W/m2
23:48 44.2 °F 41.5 °F 30.26 in Calm     90% 0.00 in 0.00 W/m2
23:53 44.2 °F 41.5 °F 30.26 in SE 4.0 mph 4.0 mph 90% 0.00 in 0.00 W/m2
23:58 44.2 °F 41.5 °F 30.26 in Calm   6.0 mph 90% 0.00 in 0.00 W/m2
Foresthill Weather
 WU-history PHP script courtesy of   Juneau County Weather.
powered by Cumulus v1.9.3 (1059)
Ambient Weather VWS v14.00
Top Contact Website Map Copyright © 2007 - 2018 Foresthillweather.com Never base important decisions on this or any weather information obtained from the Internet